sensor_id;sensor_type;location;lat;lon;timestamp;pressure;altitude;pressure_sealevel;temperature;humidity
29315;BME280;16320;53.954;9.506;2023-03-18T00:01:52;100313.06;;;10.40;100.00
29315;BME280;16320;53.954;9.506;2023-03-18T00:04:57;100307.81;;;10.40;100.00
29315;BME280;16320;53.954;9.506;2023-03-18T00:08:03;100313.97;;;10.39;100.00
29315;BME280;16320;53.954;9.506;2023-03-18T00:11:09;100310.50;;;10.39;100.00
29315;BME280;16320;53.954;9.506;2023-03-18T00:14:14;100309.69;;;10.38;100.00
29315;BME280;16320;53.954;9.506;2023-03-18T00:17:19;100313.81;;;10.42;100.00
29315;BME280;16320;53.954;9.506;2023-03-18T00:20:24;100320.84;;;10.42;100.00
29315;BME280;16320;53.954;9.506;2023-03-18T00:23:42;100317.25;;;10.43;100.00
29315;BME280;16320;53.954;9.506;2023-03-18T00:26:47;100320.84;;;10.42;100.00
29315;BME280;16320;53.954;9.506;2023-03-18T00:29:52;100325.34;;;10.40;100.00
29315;BME280;16320;53.954;9.506;2023-03-18T00:32:56;100322.19;;;10.33;100.00
29315;BME280;16320;53.954;9.506;2023-03-18T00:36:01;100319.56;;;10.33;100.00
29315;BME280;16320;53.954;9.506;2023-03-18T00:39:06;100317.81;;;10.34;100.00
29315;BME280;16320;53.954;9.506;2023-03-18T00:42:12;100313.53;;;10.31;100.00
29315;BME280;16320;53.954;9.506;2023-03-18T00:45:17;100319.56;;;10.33;100.00
29315;BME280;16320;53.954;9.506;2023-03-18T00:48:23;100321.09;;;10.37;100.00
29315;BME280;16320;53.954;9.506;2023-03-18T00:51:31;100330.69;;;10.38;100.00
29315;BME280;16320;53.954;9.506;2023-03-18T00:54:36;100341.19;;;10.38;100.00
29315;BME280;16320;53.954;9.506;2023-03-18T00:57:41;100339.41;;;10.39;100.00
29315;BME280;16320;53.954;9.506;2023-03-18T01:00:45;100338.47;;;10.40;100.00
29315;BME280;16320;53.954;9.506;2023-03-18T01:03:50;100339.13;;;10.43;100.00
29315;BME280;16320;53.954;9.506;2023-03-18T01:06:55;100334.97;;;10.39;100.00
29315;BME280;16320;53.954;9.506;2023-03-18T01:09:59;100334.81;;;10.42;100.00
29315;BME280;16320;53.954;9.506;2023-03-18T01:13:04;100330.50;;;10.41;100.00
29315;BME280;16320;53.954;9.506;2023-03-18T01:16:09;100331.59;;;10.37;100.00
29315;BME280;16320;53.954;9.506;2023-03-18T01:19:14;100328.16;;;10.37;100.00
29315;BME280;16320;53.954;9.506;2023-03-18T01:22:18;100328.31;;;10.34;100.00
29315;BME280;16320;53.954;9.506;2023-03-18T01:25:23;100330.69;;;10.38;100.00
29315;BME280;16320;53.954;9.506;2023-03-18T01:28:27;100335.31;;;10.33;100.00
29315;BME280;16320;53.954;9.506;2023-03-18T01:31:33;100345.81;;;10.33;100.00
29315;BME280;16320;53.954;9.506;2023-03-18T01:34:38;100347.09;;;10.26;100.00
29315;BME280;16320;53.954;9.506;2023-03-18T01:37:44;100366.84;;;10.17;100.00
29315;BME280;16320;53.954;9.506;2023-03-18T01:40:50;100360.47;;;10.21;100.00
29315;BME280;16320;53.954;9.506;2023-03-18T01:43:55;100365.03;;;10.18;100.00
29315;BME280;16320;53.954;9.506;2023-03-18T01:47:00;100372.31;;;10.13;100.00
29315;BME280;16320;53.954;9.506;2023-03-18T01:50:05;100373.66;;;10.04;100.00
29315;BME280;16320;53.954;9.506;2023-03-18T01:53:13;100370.22;;;10.03;100.00
29315;BME280;16320;53.954;9.506;2023-03-18T01:56:20;100374.88;;;9.98;100.00
29315;BME280;16320;53.954;9.506;2023-03-18T01:59:27;100384.75;;;9.93;100.00
29315;BME280;16320;53.954;9.506;2023-03-18T02:02:34;100388.56;;;9.87;100.00
29315;BME280;16320;53.954;9.506;2023-03-18T02:05:39;100388.19;;;9.78;100.00
29315;BME280;16320;53.954;9.506;2023-03-18T02:08:46;100388.19;;;9.78;100.00
29315;BME280;16320;53.954;9.506;2023-03-18T02:11:52;100396.16;;;9.76;100.00
29315;BME280;16320;53.954;9.506;2023-03-18T02:14:57;100400.72;;;9.73;100.00
29315;BME280;16320;53.954;9.506;2023-03-18T02:18:22;100403.78;;;9.81;100.00
29315;BME280;16320;53.954;9.506;2023-03-18T02:21:52;100405.81;;;9.76;100.00
29315;BME280;16320;53.954;9.506;2023-03-18T02:29:05;100422.66;;;9.71;100.00
29315;BME280;16320;53.954;9.506;2023-03-18T02:32:11;100419.91;;;9.73;100.00
29315;BME280;16320;53.954;9.506;2023-03-18T02:35:17;100414.94;;;9.68;100.00
29315;BME280;16320;53.954;9.506;2023-03-18T02:38:21;100419.63;;;9.62;100.00
29315;BME280;16320;53.954;9.506;2023-03-18T02:41:33;100427.41;;;9.63;100.00
29315;BME280;16320;53.954;9.506;2023-03-18T02:44:42;100424.72;;;9.65;100.00
29315;BME280;16320;53.954;9.506;2023-03-18T02:47:49;100433.53;;;9.64;100.00
29315;BME280;16320;53.954;9.506;2023-03-18T02:50:55;100435.47;;;9.60;100.00
29315;BME280;16320;53.954;9.506;2023-03-18T02:54:09;100441.47;;;9.62;100.00
29315;BME280;16320;53.954;9.506;2023-03-18T02:57:15;100440.53;;;9.63;100.00
29315;BME280;16320;53.954;9.506;2023-03-18T03:00:20;100437.75;;;9.66;100.00
29315;BME280;16320;53.954;9.506;2023-03-18T03:03:26;100441.41;;;9.64;100.00
29315;BME280;16320;53.954;9.506;2023-03-18T03:06:30;100438.63;;;9.67;100.00
29315;BME280;16320;53.954;9.506;2023-03-18T03:09:35;100432.94;;;9.75;100.00
29315;BME280;16320;53.954;9.506;2023-03-18T03:12:39;100430.53;;;9.71;100.00
29315;BME280;16320;53.954;9.506;2023-03-18T03:15:44;100419.84;;;9.75;100.00
29315;BME280;16320;53.954;9.506;2023-03-18T03:18:49;100430.31;;;9.75;100.00
29315;BME280;16320;53.954;9.506;2023-03-18T03:21:54;100429.25;;;9.79;100.00
29315;BME280;16320;53.954;9.506;2023-03-18T03:24:59;100438.97;;;9.77;100.00
29315;BME280;16320;53.954;9.506;2023-03-18T03:28:05;100436.34;;;9.77;100.00
29315;BME280;16320;53.954;9.506;2023-03-18T03:31:11;100434.56;;;9.77;100.00
29315;BME280;16320;53.954;9.506;2023-03-18T03:34:16;100440.66;;;9.78;100.00
29315;BME280;16320;53.954;9.506;2023-03-18T03:37:21;100449.47;;;9.77;100.00
29315;BME280;16320;53.954;9.506;2023-03-18T03:40:25;100449.47;;;9.77;100.00
29315;BME280;16320;53.954;9.506;2023-03-18T03:43:31;100446.63;;;9.81;100.00
29315;BME280;16320;53.954;9.506;2023-03-18T03:46:36;100444.91;;;9.80;100.00
29315;BME280;16320;53.954;9.506;2023-03-18T03:49:41;100445.00;;;9.79;100.00
29315;BME280;16320;53.954;9.506;2023-03-18T03:52:46;100443.19;;;9.79;100.00
29315;BME280;16320;53.954;9.506;2023-03-18T03:55:51;100453.53;;;9.82;100.00
29315;BME280;16320;53.954;9.506;2023-03-18T03:58:56;100453.78;;;9.78;100.00
29315;BME280;16320;53.954;9.506;2023-03-18T04:02:01;100451.31;;;9.75;100.00
29315;BME280;16320;53.954;9.506;2023-03-18T04:05:07;100461.81;;;9.75;100.00
29315;BME280;16320;53.954;9.506;2023-03-18T04:08:11;100460.28;;;9.70;100.00
29315;BME280;16320;53.954;9.506;2023-03-18T04:11:15;100463.97;;;9.66;100.00
29315;BME280;16320;53.954;9.506;2023-03-18T04:14:20;100469.22;;;9.66;100.00
29315;BME280;16320;53.954;9.506;2023-03-18T04:17:24;100462.63;;;9.59;100.00
29315;BME280;16320;53.954;9.506;2023-03-18T04:20:28;100478.34;;;9.59;100.00
29315;BME280;16320;53.954;9.506;2023-03-18T04:23:33;100486.22;;;9.59;100.00
29315;BME280;16320;53.954;9.506;2023-03-18T04:26:38;100482.97;;;9.54;100.00
29315;BME280;16320;53.954;9.506;2023-03-18T04:29:43;100478.81;;;9.50;100.00
29315;BME280;16320;53.954;9.506;2023-03-18T04:32:48;100492.00;;;9.48;100.00
29315;BME280;16320;53.954;9.506;2023-03-18T04:35:53;100506.13;;;9.46;100.00
29315;BME280;16320;53.954;9.506;2023-03-18T04:38:58;100503.50;;;9.46;100.00
29315;BME280;16320;53.954;9.506;2023-03-18T04:42:03;100501.94;;;9.42;100.00
29315;BME280;16320;53.954;9.506;2023-03-18T04:45:07;100508.91;;;9.43;100.00
29315;BME280;16320;53.954;9.506;2023-03-18T04:48:12;100504.56;;;9.42;100.00
29315;BME280;16320;53.954;9.506;2023-03-18T04:51:16;100510.81;;;9.39;100.00
29315;BME280;16320;53.954;9.506;2023-03-18T04:54:21;100514.28;;;9.40;100.00
29315;BME280;16320;53.954;9.506;2023-03-18T04:57:26;100496.84;;;9.39;100.00
29315;BME280;16320;53.954;9.506;2023-03-18T05:00:31;100499.41;;;9.40;100.00
29315;BME280;16320;53.954;9.506;2023-03-18T05:03:36;100514.28;;;9.40;100.00
29315;BME280;16320;53.954;9.506;2023-03-18T05:06:40;100510.91;;;9.38;100.00
29315;BME280;16320;53.954;9.506;2023-03-18T05:09:45;100522.22;;;9.38;100.00
29315;BME280;16320;53.954;9.506;2023-03-18T05:12:50;100520.66;;;9.34;100.00
29315;BME280;16320;53.954;9.506;2023-03-18T05:15:54;100530.31;;;9.33;100.00
29315;BME280;16320;53.954;9.506;2023-03-18T05:18:59;100525.53;;;9.42;100.00
29315;BME280;16320;53.954;9.506;2023-03-18T05:22:03;100533.56;;;9.39;100.00
29315;BME280;16320;53.954;9.506;2023-03-18T05:25:08;100536.63;;;9.47;100.00
29315;BME280;16320;53.954;9.506;2023-03-18T05:28:14;100542.81;;;9.46;100.00
29315;BME280;16320;53.954;9.506;2023-03-18T05:31:19;100535.09;;;9.43;100.00
29315;BME280;16320;53.954;9.506;2023-03-18T05:34:24;100541.88;;;9.47;100.00
29315;BME280;16320;53.954;9.506;2023-03-18T05:37:29;100538.56;;;9.43;100.00
29315;BME280;16320;53.954;9.506;2023-03-18T05:40:34;100543.13;;;9.40;100.00
29315;BME280;16320;53.954;9.506;2023-03-18T05:43:39;100549.81;;;9.45;100.00
29315;BME280;16320;53.954;9.506;2023-03-18T05:46:43;100536.78;;;9.44;100.00
29315;BME280;16320;53.954;9.506;2023-03-18T05:49:48;100543.81;;;9.43;100.00
29315;BME280;16320;53.954;9.506;2023-03-18T05:52:52;100551.75;;;9.42;100.00
29315;BME280;16320;53.954;9.506;2023-03-18T05:55:56;100556.84;;;9.45;100.00
29315;BME280;16320;53.954;9.506;2023-03-18T05:59:01;100562.84;;;9.47;100.00
29315;BME280;16320;53.954;9.506;2023-03-18T06:02:07;100557.94;;;9.41;100.00
29315;BME280;16320;53.954;9.506;2023-03-18T06:05:12;100568.41;;;9.41;100.00
29315;BME280;16320;53.954;9.506;2023-03-18T06:08:16;100567.47;;;9.42;100.00
29315;BME280;16320;53.954;9.506;2023-03-18T06:11:21;100567.47;;;9.42;100.00
29315;BME280;16320;53.954;9.506;2023-03-18T06:14:26;100570.66;;;9.48;100.00
29315;BME280;16320;53.954;9.506;2023-03-18T06:17:32;100566.28;;;9.49;100.00
29315;BME280;16320;53.954;9.506;2023-03-18T06:20:37;100583.75;;;9.48;100.00
29315;BME280;16320;53.954;9.506;2023-03-18T06:23:42;100573.19;;;9.50;100.00
29315;BME280;16320;53.954;9.506;2023-03-18T06:26:48;100576.56;;;9.52;100.00
29315;BME280;16320;53.954;9.506;2023-03-18T06:29:52;100585.25;;;9.54;100.00
29315;BME280;16320;53.954;9.506;2023-03-18T06:32:57;100580.00;;;9.54;100.00
29315;BME280;16320;53.954;9.506;2023-03-18T06:36:01;100589.31;;;9.60;100.00
29315;BME280;16320;53.954;9.506;2023-03-18T06:39:07;100596.34;;;9.59;100.00
29315;BME280;16320;53.954;9.506;2023-03-18T06:42:12;100600.69;;;9.60;100.00
29315;BME280;16320;53.954;9.506;2023-03-18T06:45:17;100610.00;;;9.66;100.00
29315;BME280;16320;53.954;9.506;2023-03-18T06:48:21;100611.84;;;9.64;100.00
29315;BME280;16320;53.954;9.506;2023-03-18T06:51:26;100609.00;;;9.68;100.00
29315;BME280;16320;53.954;9.506;2023-03-18T06:54:30;100611.47;;;9.71;100.00
29315;BME280;16320;53.954;9.506;2023-03-18T06:57:35;100614.09;;;9.71;100.00
29315;BME280;16320;53.954;9.506;2023-03-18T07:00:40;100613.84;;;9.76;100.00
29315;BME280;16320;53.954;9.506;2023-03-18T07:03:45;100621.88;;;9.73;100.00
29315;BME280;16320;53.954;9.506;2023-03-18T07:06:49;100625.81;;;9.82;100.00
29315;BME280;16320;53.954;9.506;2023-03-18T07:09:54;100630.91;;;9.85;100.00
29315;BME280;16320;53.954;9.506;2023-03-18T07:12:58;100634.31;;;9.87;100.00
29315;BME280;16320;53.954;9.506;2023-03-18T07:16:03;100639.25;;;9.93;100.00
29315;BME280;16320;53.954;9.506;2023-03-18T07:19:08;100636.78;;;9.90;100.00
29315;BME280;16320;53.954;9.506;2023-03-18T07:22:14;100654.50;;;10.02;100.00
29315;BME280;16320;53.954;9.506;2023-03-18T07:25:20;100654.06;;;10.12;100.00
29315;BME280;16320;53.954;9.506;2023-03-18T07:28:26;100658.16;;;10.17;100.00
29315;BME280;16320;53.954;9.506;2023-03-18T07:31:30;100656.53;;;10.32;100.00
29315;BME280;16320;53.954;9.506;2023-03-18T07:34:35;100655.34;;;10.38;100.00
29315;BME280;16320;53.954;9.506;2023-03-18T07:37:40;100660.31;;;10.44;100.00
29315;BME280;16320;53.954;9.506;2023-03-18T07:40:45;100666.22;;;10.48;100.00
29315;BME280;16320;53.954;9.506;2023-03-18T07:43:49;100666.16;;;10.49;100.00
29315;BME280;16320;53.954;9.506;2023-03-18T07:46:53;100673.56;;;10.58;100.00
29315;BME280;16320;53.954;9.506;2023-03-18T07:49:58;100670.69;;;10.63;100.00
29315;BME280;16320;53.954;9.506;2023-03-18T07:53:03;100670.97;;;10.74;100.00
29315;BME280;16320;53.954;9.506;2023-03-18T07:56:08;100677.75;;;10.78;100.00
29315;BME280;16320;53.954;9.506;2023-03-18T07:59:16;100682.09;;;10.79;100.00
29315;BME280;16320;53.954;9.506;2023-03-18T08:02:22;100672.59;;;10.93;100.00
29315;BME280;16320;53.954;9.506;2023-03-18T08:05:26;100677.94;;;10.91;100.00
29315;BME280;16320;53.954;9.506;2023-03-18T08:08:30;100685.75;;;10.93;100.00
29315;BME280;16320;53.954;9.506;2023-03-18T08:11:35;100688.22;;;10.96;100.00
29315;BME280;16320;53.954;9.506;2023-03-18T08:14:41;100692.56;;;10.97;100.00
29315;BME280;16320;53.954;9.506;2023-03-18T08:17:46;100699.56;;;10.96;100.00
29315;BME280;16320;53.954;9.506;2023-03-18T08:20:50;100705.84;;;10.94;100.00
29315;BME280;16320;53.954;9.506;2023-03-18T08:23:56;100704.97;;;10.93;100.00
29315;BME280;16320;53.954;9.506;2023-03-18T08:27:00;100720.06;;;10.90;100.00
29315;BME280;16320;53.954;9.506;2023-03-18T08:30:05;100720.94;;;10.90;100.00
29315;BME280;16320;53.954;9.506;2023-03-18T08:33:10;100727.78;;;10.93;100.00
29315;BME280;16320;53.954;9.506;2023-03-18T08:36:15;100731.97;;;10.97;100.00
29315;BME280;16320;53.954;9.506;2023-03-18T08:39:19;100735.03;;;11.05;100.00
29315;BME280;16320;53.954;9.506;2023-03-18T08:42:23;100736.91;;;11.03;100.00
29315;BME280;16320;53.954;9.506;2023-03-18T08:45:28;100737.06;;;11.00;100.00
29315;BME280;16320;53.954;9.506;2023-03-18T08:48:32;100738.44;;;11.07;100.00
29315;BME280;16320;53.954;9.506;2023-03-18T08:51:39;100746.59;;;11.18;100.00
29315;BME280;16320;53.954;9.506;2023-03-18T08:54:43;100744.53;;;11.24;100.00
29315;BME280;16320;53.954;9.506;2023-03-18T08:57:48;100747.09;;;11.25;100.00
29315;BME280;16320;53.954;9.506;2023-03-18T09:00:54;100758.19;;;11.14;100.00
29315;BME280;16320;53.954;9.506;2023-03-18T09:03:59;100769.41;;;11.18;100.00
29315;BME280;16320;53.954;9.506;2023-03-18T09:07:09;100761.09;;;11.26;100.00
29315;BME280;16320;53.954;9.506;2023-03-18T09:10:15;100775.78;;;11.30;100.00
29315;BME280;16320;53.954;9.506;2023-03-18T09:13:22;100773.56;;;11.22;100.00
29315;BME280;16320;53.954;9.506;2023-03-18T09:16:27;100778.06;;;11.20;100.00
29315;BME280;16320;53.954;9.506;2023-03-18T09:19:32;100778.13;;;11.18;100.00
29315;BME280;16320;53.954;9.506;2023-03-18T09:22:40;100767.88;;;10.96;100.00
29315;BME280;16320;53.954;9.506;2023-03-18T09:25:45;100794.59;;;10.89;100.00
29315;BME280;16320;53.954;9.506;2023-03-18T09:29:20;100810.06;;;10.77;100.00
29315;BME280;16320;53.954;9.506;2023-03-18T09:32:55;100825.53;;;10.66;100.00
29315;BME280;16320;53.954;9.506;2023-03-18T09:36:39;100845.72;;;10.64;100.00
29315;BME280;16320;53.954;9.506;2023-03-18T09:40:35;100864.63;;;10.72;100.00
29315;BME280;16320;53.954;9.506;2023-03-18T09:44:35;100875.41;;;10.84;100.00
29315;BME280;16320;53.954;9.506;2023-03-18T09:52:49;100894.59;;;11.03;100.00
29315;BME280;16320;53.954;9.506;2023-03-18T09:56:27;100891.41;;;11.14;100.00
29315;BME280;16320;53.954;9.506;2023-03-18T09:59:47;100893.81;;;11.18;100.00
29315;BME280;16320;53.954;9.506;2023-03-18T10:06:42;100906.19;;;11.16;100.00
29315;BME280;16320;53.954;9.506;2023-03-18T10:10:08;100902.44;;;11.21;100.00
29315;BME280;16320;53.954;9.506;2023-03-18T10:13:37;100904.16;;;11.22;100.00
29315;BME280;16320;53.954;9.506;2023-03-18T10:17:20;100905.53;;;11.29;100.00
29315;BME280;16320;53.954;9.506;2023-03-18T10:21:09;100895.38;;;11.39;100.00
29315;BME280;16320;53.954;9.506;2023-03-18T10:32:21;100893.03;;;11.83;100.00
29315;BME280;16320;53.954;9.506;2023-03-18T10:36:03;100902.84;;;12.13;100.00
29315;BME280;16320;53.954;9.506;2023-03-18T10:39:18;100892.13;;;12.16;100.00
29315;BME280;16320;53.954;9.506;2023-03-18T10:42:30;100882.09;;;12.07;100.00
29315;BME280;16320;53.954;9.506;2023-03-18T10:45:37;100877.03;;;12.04;100.00
29315;BME280;16320;53.954;9.506;2023-03-18T10:48:53;100876.84;;;12.23;100.00
29315;BME280;16320;53.954;9.506;2023-03-18T10:52:47;100869.50;;;12.44;100.00
29315;BME280;16320;53.954;9.506;2023-03-18T10:56:08;100860.97;;;12.71;100.00
29315;BME280;16320;53.954;9.506;2023-03-18T10:59:22;100859.88;;;12.89;100.00
29315;BME280;16320;53.954;9.506;2023-03-18T11:02:55;100839.00;;;13.15;100.00
29315;BME280;16320;53.954;9.506;2023-03-18T11:06:53;100833.97;;;13.41;100.00
29315;BME280;16320;53.954;9.506;2023-03-18T11:10:23;100823.78;;;13.34;100.00
29315;BME280;16320;53.954;9.506;2023-03-18T11:13:52;100821.00;;;13.22;100.00
29315;BME280;16320;53.954;9.506;2023-03-18T11:31:04;100819.50;;;12.58;100.00
29315;BME280;16320;53.954;9.506;2023-03-18T11:34:09;100831.94;;;12.56;100.00
29315;BME280;16320;53.954;9.506;2023-03-18T11:37:14;100836.81;;;12.48;100.00
29315;BME280;16320;53.954;9.506;2023-03-18T11:40:27;100838.56;;;12.48;100.00
29315;BME280;16320;53.954;9.506;2023-03-18T11:43:36;100835.50;;;12.55;100.00
29315;BME280;16320;53.954;9.506;2023-03-18T11:50:20;100834.81;;;12.82;100.00
29315;BME280;16320;53.954;9.506;2023-03-18T11:57:20;100837.91;;;13.33;100.00
29315;BME280;16320;53.954;9.506;2023-03-18T12:11:51;100818.22;;;13.95;100.00
29315;BME280;16320;53.954;9.506;2023-03-18T12:15:11;100807.50;;;14.11;100.00
29315;BME280;16320;53.954;9.506;2023-03-18T12:25:40;100815.78;;;13.78;100.00
29315;BME280;16320;53.954;9.506;2023-03-18T12:29:06;100823.34;;;13.69;100.00
29315;BME280;16320;53.954;9.506;2023-03-18T12:32:34;100817.53;;;13.50;100.00
29315;BME280;16320;53.954;9.506;2023-03-18T12:47:31;100861.88;;;14.28;100.00
29315;BME280;16320;53.954;9.506;2023-03-18T12:50:55;100827.78;;;14.51;100.00
29315;BME280;16320;53.954;9.506;2023-03-18T12:54:14;100824.81;;;14.02;100.00
29315;BME280;16320;53.954;9.506;2023-03-18T12:57:47;100826.69;;;14.00;100.00
29315;BME280;16320;53.954;9.506;2023-03-18T13:01:16;100825.19;;;13.96;100.00
29315;BME280;16320;53.954;9.506;2023-03-18T13:04:42;100842.56;;;14.40;100.00
29315;BME280;16320;53.954;9.506;2023-03-18T13:12:41;100821.22;;;15.09;100.00
29315;BME280;16320;53.954;9.506;2023-03-18T13:15:59;100812.34;;;14.85;100.00
29315;BME280;16320;53.954;9.506;2023-03-18T13:19:08;100815.31;;;14.93;100.00
29315;BME280;16320;53.954;9.506;2023-03-18T13:22:43;100815.31;;;15.06;100.00
29315;BME280;16320;53.954;9.506;2023-03-18T13:26:16;100814.03;;;14.86;100.00
29315;BME280;16320;53.954;9.506;2023-03-18T13:30:19;100813.50;;;14.80;100.00
29315;BME280;16320;53.954;9.506;2023-03-18T13:34:12;100821.22;;;15.09;100.00
29315;BME280;16320;53.954;9.506;2023-03-18T13:38:07;100813.38;;;15.20;100.00
29315;BME280;16320;53.954;9.506;2023-03-18T13:41:43;100812.44;;;15.22;100.00
29315;BME280;16320;53.954;9.506;2023-03-18T13:48:38;100832.25;;;14.50;100.00
29315;BME280;16320;53.954;9.506;2023-03-18T13:52:17;100835.63;;;15.05;100.00
29315;BME280;16320;53.954;9.506;2023-03-18T13:56:23;100839.22;;;15.17;100.00
29315;BME280;16320;53.954;9.506;2023-03-18T14:00:39;100841.56;;;15.22;100.00
29315;BME280;16320;53.954;9.506;2023-03-18T14:13:22;100822.41;;;15.05;100.00
29315;BME280;16320;53.954;9.506;2023-03-18T15:46:37;100859.19;;;13.59;100.00
29315;BME280;16320;53.954;9.506;2023-03-18T15:50:29;100876.19;;;13.55;100.00
29315;BME280;16320;53.954;9.506;2023-03-18T15:54:21;100862.75;;;13.58;100.00
29315;BME280;16320;53.954;9.506;2023-03-18T15:59:04;100878.66;;;14.00;100.00
29315;BME280;16320;53.954;9.506;2023-03-18T16:02:32;100847.66;;;14.16;100.00
29315;BME280;16320;53.954;9.506;2023-03-18T16:15:23;100833.41;;;13.91;100.00
29315;BME280;16320;53.954;9.506;2023-03-18T16:46:12;100899.00;;;12.81;100.00
29315;BME280;16320;53.954;9.506;2023-03-18T16:50:08;100907.53;;;12.70;100.00
29315;BME280;16320;53.954;9.506;2023-03-18T16:54:07;100923.19;;;12.57;100.00
29315;BME280;16320;53.954;9.506;2023-03-18T16:58:01;100916.41;;;12.53;100.00
29315;BME280;16320;53.954;9.506;2023-03-18T17:01:29;100922.19;;;12.44;100.00
29315;BME280;16320;53.954;9.506;2023-03-18T17:04:57;100935.13;;;12.33;100.00
29315;BME280;16320;53.954;9.506;2023-03-18T17:08:22;100930.38;;;12.23;100.00
29315;BME280;16320;53.954;9.506;2023-03-18T17:11:42;100932.66;;;12.14;100.00
29315;BME280;16320;53.954;9.506;2023-03-18T19:20:42;101019.13;;;11.01;100.00
29315;BME280;16320;53.954;9.506;2023-03-18T19:41:55;101007.38;;;11.08;100.00
29315;BME280;16320;53.954;9.506;2023-03-18T19:51:24;101011.44;;;11.15;100.00
29315;BME280;16320;53.954;9.506;2023-03-18T19:55:16;101014.19;;;11.12;100.00
29315;BME280;16320;53.954;9.506;2023-03-18T19:58:27;101015.03;;;11.12;100.00
29315;BME280;16320;53.954;9.506;2023-03-18T20:01:32;101019.25;;;11.16;100.00
29315;BME280;16320;53.954;9.506;2023-03-18T20:04:41;101015.81;;;11.14;100.00
29315;BME280;16320;53.954;9.506;2023-03-18T20:07:46;101021.16;;;11.13;100.00
29315;BME280;16320;53.954;9.506;2023-03-18T20:10:52;101017.75;;;11.11;100.00
29315;BME280;16320;53.954;9.506;2023-03-18T20:14:00;101010.88;;;11.08;100.00
29315;BME280;16320;53.954;9.506;2023-03-18T20:17:27;101020.59;;;11.06;100.00
29315;BME280;16320;53.954;9.506;2023-03-18T20:20:33;101016.06;;;11.10;100.00
29315;BME280;16320;53.954;9.506;2023-03-18T20:23:40;101024.84;;;11.09;100.00
29315;BME280;16320;53.954;9.506;2023-03-18T20:26:46;101016.34;;;11.04;100.00
29315;BME280;16320;53.954;9.506;2023-03-18T20:29:51;101024.47;;;10.99;100.00
29315;BME280;16320;53.954;9.506;2023-03-18T20:32:57;101033.13;;;11.01;100.00
29315;BME280;16320;53.954;9.506;2023-03-18T20:36:03;101025.16;;;11.03;100.00
29315;BME280;16320;53.954;9.506;2023-03-18T20:39:18;101029.03;;;10.95;100.00
29315;BME280;16320;53.954;9.506;2023-03-18T20:42:27;101035.88;;;10.98;100.00
29315;BME280;16320;53.954;9.506;2023-03-18T20:45:34;101030.00;;;10.93;100.00
29315;BME280;16320;53.954;9.506;2023-03-18T20:48:45;101023.69;;;10.97;100.00
29315;BME280;16320;53.954;9.506;2023-03-18T21:07:45;101020.19;;;10.96;100.00
29315;BME280;16320;53.954;9.506;2023-03-18T21:17:10;101017.50;;;10.98;100.00
29315;BME280;16320;53.954;9.506;2023-03-18T21:33:37;101004.44;;;11.14;100.00
29315;BME280;16320;53.954;9.506;2023-03-18T21:37:25;101008.78;;;11.15;100.00
29315;BME280;16320;53.954;9.506;2023-03-18T21:41:29;101000.28;;;11.10;100.00
29315;BME280;16320;53.954;9.506;2023-03-18T21:45:05;100997.88;;;11.05;100.00
29315;BME280;16320;53.954;9.506;2023-03-18T21:48:32;100990.28;;;10.99;100.00
29315;BME280;16320;53.954;9.506;2023-03-18T21:52:36;100990.59;;;10.93;100.00
29315;BME280;16320;53.954;9.506;2023-03-18T21:56:04;100995.22;;;10.88;100.00
29315;BME280;16320;53.954;9.506;2023-03-18T21:59:31;100988.31;;;10.85;100.00
29315;BME280;16320;53.954;9.506;2023-03-18T22:02:47;100986.56;;;10.86;100.00
29315;BME280;16320;53.954;9.506;2023-03-18T22:05:55;100988.72;;;10.77;100.00
29315;BME280;16320;53.954;9.506;2023-03-18T22:09:05;100995.81;;;10.75;100.00
29315;BME280;16320;53.954;9.506;2023-03-18T22:12:27;100988.88;;;10.74;100.00
29315;BME280;16320;53.954;9.506;2023-03-18T22:15:37;100990.53;;;10.75;100.00
29315;BME280;16320;53.954;9.506;2023-03-18T22:18:44;101002.00;;;10.74;100.00
29315;BME280;16320;53.954;9.506;2023-03-18T22:21:49;100995.25;;;10.69;100.00
29315;BME280;16320;53.954;9.506;2023-03-18T22:24:54;100991.00;;;10.66;100.00
29315;BME280;16320;53.954;9.506;2023-03-18T22:28:00;100992.69;;;10.67;100.00
29315;BME280;16320;53.954;9.506;2023-03-18T22:31:11;100991.78;;;10.68;100.00
29315;BME280;16320;53.954;9.506;2023-03-18T22:34:25;100991.28;;;10.60;100.00
29315;BME280;16320;53.954;9.506;2023-03-18T22:37:31;100998.25;;;10.61;100.00
29315;BME280;16320;53.954;9.506;2023-03-18T22:40:39;101003.53;;;10.61;100.00
29315;BME280;16320;53.954;9.506;2023-03-18T22:43:45;101001.09;;;10.56;100.00
29315;BME280;16320;53.954;9.506;2023-03-18T22:46:49;100990.66;;;10.55;100.00
29315;BME280;16320;53.954;9.506;2023-03-18T22:49:54;100994.34;;;10.51;100.00
29315;BME280;16320;53.954;9.506;2023-03-18T22:53:07;100990.31;;;10.43;100.00
29315;BME280;16320;53.954;9.506;2023-03-18T22:56:16;100996.69;;;10.38;100.00
29315;BME280;16320;53.954;9.506;2023-03-18T22:59:21;100989.75;;;10.37;100.00
29315;BME280;16320;53.954;9.506;2023-03-18T23:02:26;100996.00;;;10.34;100.00
29315;BME280;16320;53.954;9.506;2023-03-18T23:05:31;100995.59;;;10.23;100.00
29315;BME280;16320;53.954;9.506;2023-03-18T23:08:36;100997.59;;;10.18;100.00
29315;BME280;16320;53.954;9.506;2023-03-18T23:11:41;100997.94;;;10.29;100.00
29315;BME280;16320;53.954;9.506;2023-03-18T23:14:46;101005.66;;;10.34;100.00
29315;BME280;16320;53.954;9.506;2023-03-18T23:17:51;101011.75;;;10.34;100.00
29315;BME280;16320;53.954;9.506;2023-03-18T23:20:55;101006.91;;;10.44;100.00